The Eastern Iowa Airport
KCID : rendu visible

Aérodrome :











RETROUVEZ-NOUS SUR...

 
LOGIN :

S'inscrire | Disclaimer

   EN    FR    IT 

 









Légende :    VFR   VFR Marginal   IFR   IFR Intensif   IFR Très Intensif
Visi : 
Plafond : 
>= 8 km
>= 3000ft
5 à 8 km
1000 à 3000 ft
1500m à 5 km
500 à 1000 ft
800 à 1500m
200 à 500 ft
< 800m
< 200 ft
Symboles :   Orages  Brouillard  Fortes neiges  Fortes précipitations  Vent > 20 kt






- Altitude de l'aérodrome : 869 ft
- Code IATA : CID


KCID - The Eastern Iowa

DERNIER METAR :
  • 231852Z 00000KT 9SM CLR 02/M03 A3029 RMK AO2 SLP268 T00171028

METARs EXPIRÉS :
  • 231752Z 00000KT 9SM CLR 01/M03 A3032 RMK AO2 SLP276 T00111028 10017 21078 58005
  • 231652Z 02003KT 10SM CLR 01/M03 A3034 RMK AO2 SLP283 T00061028

TAF KCID
Valide du 23 à 18h jusqu'au 24 à 18h UTC


231746Z 2318/2418 VRB04KT P6SM BKN150
FM240400 14007KT 4SM -SN OVC030
FM240500 14010KT 1SM -SN BR BKN008 OVC015
TEMPO 2406/2410 1/2SM SN FG OVC004
FM241000 13012KT 1SM -RASN BR OVC004
FM241200 14013G21KT 2SM -RA OVC005
FIR KZAU / Amérique du Nord



MET'MAP, la Météo Aéronautique d'un coup d'oeil ! - Copyright ORBIFLY Décembre 2007 - Disclaimer

ORBIFLY MET'MAP TEAM :

Programmation & Développement : Alexandra Zaïnal
Sur une idée originale de : Baudouin d'Aumeries
Assistance à la programmation : Marc-Olivier Méhu
Soutien technique & logistique : Manuel Goepfert

Contact : metmap@orbifly.com




SOURCES & CREDITS :

   NOAA       Earth
Advisory